sensor_id;sensor_type;location;lat;lon;timestamp;P1;durP1;ratioP1;P2;durP2;ratioP2
16669;SDS011;8448;52.034;5.158;2024-01-15T00:01:50;6.73;;;1.50;;
16669;SDS011;8448;52.034;5.158;2024-01-15T00:04:18;9.87;;;1.57;;
16669;SDS011;8448;52.034;5.158;2024-01-15T00:06:46;9.63;;;1.40;;
16669;SDS011;8448;52.034;5.158;2024-01-15T00:09:15;7.07;;;1.07;;
16669;SDS011;8448;52.034;5.158;2024-01-15T00:11:42;7.53;;;1.40;;
16669;SDS011;8448;52.034;5.158;2024-01-15T00:14:10;7.30;;;1.33;;
16669;SDS011;8448;52.034;5.158;2024-01-15T00:16:40;8.03;;;1.50;;
16669;SDS011;8448;52.034;5.158;2024-01-15T00:19:07;6.00;;;1.67;;
16669;SDS011;8448;52.034;5.158;2024-01-15T00:21:35;9.47;;;1.50;;
16669;SDS011;8448;52.034;5.158;2024-01-15T00:24:04;7.37;;;1.30;;
16669;SDS011;8448;52.034;5.158;2024-01-15T00:26:31;9.73;;;1.30;;
16669;SDS011;8448;52.034;5.158;2024-01-15T00:28:59;9.53;;;1.23;;
16669;SDS011;8448;52.034;5.158;2024-01-15T00:31:26;8.07;;;1.40;;
16669;SDS011;8448;52.034;5.158;2024-01-15T00:33:55;7.77;;;1.20;;
16669;SDS011;8448;52.034;5.158;2024-01-15T00:36:22;9.93;;;1.50;;
16669;SDS011;8448;52.034;5.158;2024-01-15T00:38:50;8.73;;;1.50;;
16669;SDS011;8448;52.034;5.158;2024-01-15T00:41:19;10.27;;;1.53;;
16669;SDS011;8448;52.034;5.158;2024-01-15T00:43:46;9.07;;;2.07;;
16669;SDS011;8448;52.034;5.158;2024-01-15T00:46:14;8.23;;;1.50;;
16669;SDS011;8448;52.034;5.158;2024-01-15T00:48:42;11.80;;;2.10;;
16669;SDS011;8448;52.034;5.158;2024-01-15T00:51:10;12.13;;;1.97;;
16669;SDS011;8448;52.034;5.158;2024-01-15T00:53:37;9.63;;;2.00;;
16669;SDS011;8448;52.034;5.158;2024-01-15T00:56:05;8.13;;;1.40;;
16669;SDS011;8448;52.034;5.158;2024-01-15T00:58:34;7.73;;;1.43;;
16669;SDS011;8448;52.034;5.158;2024-01-15T01:01:01;7.73;;;1.53;;
16669;SDS011;8448;52.034;5.158;2024-01-15T01:03:29;13.37;;;1.67;;
16669;SDS011;8448;52.034;5.158;2024-01-15T01:05:57;8.83;;;1.77;;
16669;SDS011;8448;52.034;5.158;2024-01-15T01:08:24;11.93;;;1.60;;
16669;SDS011;8448;52.034;5.158;2024-01-15T01:10:52;10.17;;;1.70;;
16669;SDS011;8448;52.034;5.158;2024-01-15T01:13:19;7.00;;;1.30;;
16669;SDS011;8448;52.034;5.158;2024-01-15T01:15:48;9.03;;;1.70;;
16669;SDS011;8448;52.034;5.158;2024-01-15T01:18:16;11.33;;;2.13;;
16669;SDS011;8448;52.034;5.158;2024-01-15T01:20:43;9.50;;;1.20;;
16669;SDS011;8448;52.034;5.158;2024-01-15T01:23:11;8.23;;;1.77;;
16669;SDS011;8448;52.034;5.158;2024-01-15T01:25:38;7.93;;;1.77;;
16669;SDS011;8448;52.034;5.158;2024-01-15T01:28:06;11.37;;;1.40;;
16669;SDS011;8448;52.034;5.158;2024-01-15T01:30:34;11.30;;;1.40;;
16669;SDS011;8448;52.034;5.158;2024-01-15T01:33:03;11.43;;;1.30;;
16669;SDS011;8448;52.034;5.158;2024-01-15T01:35:31;9.60;;;1.47;;
16669;SDS011;8448;52.034;5.158;2024-01-15T01:37:58;14.37;;;1.43;;
16669;SDS011;8448;52.034;5.158;2024-01-15T01:40:25;6.93;;;1.30;;
16669;SDS011;8448;52.034;5.158;2024-01-15T01:42:53;12.13;;;1.33;;
16669;SDS011;8448;52.034;5.158;2024-01-15T01:45:20;7.77;;;1.13;;
16669;SDS011;8448;52.034;5.158;2024-01-15T01:47:48;8.17;;;1.50;;
16669;SDS011;8448;52.034;5.158;2024-01-15T01:50:17;9.30;;;1.30;;
16669;SDS011;8448;52.034;5.158;2024-01-15T01:52:44;7.40;;;1.30;;
16669;SDS011;8448;52.034;5.158;2024-01-15T01:55:12;6.83;;;1.63;;
16669;SDS011;8448;52.034;5.158;2024-01-15T01:57:39;5.90;;;1.30;;
16669;SDS011;8448;52.034;5.158;2024-01-15T02:00:07;9.90;;;0.80;;
16669;SDS011;8448;52.034;5.158;2024-01-15T02:02:38;5.97;;;1.30;;
16669;SDS011;8448;52.034;5.158;2024-01-15T02:05:06;8.77;;;1.20;;
16669;SDS011;8448;52.034;5.158;2024-01-15T02:07:35;8.77;;;1.20;;
16669;SDS011;8448;52.034;5.158;2024-01-15T02:10:03;7.07;;;1.40;;
16669;SDS011;8448;52.034;5.158;2024-01-15T02:12:31;7.13;;;1.20;;
16669;SDS011;8448;52.034;5.158;2024-01-15T02:14:58;5.10;;;1.33;;
16669;SDS011;8448;52.034;5.158;2024-01-15T02:17:26;5.80;;;1.10;;
16669;SDS011;8448;52.034;5.158;2024-01-15T02:19:54;6.00;;;1.10;;
16669;SDS011;8448;52.034;5.158;2024-01-15T02:22:21;6.47;;;1.10;;
16669;SDS011;8448;52.034;5.158;2024-01-15T02:24:50;7.90;;;1.40;;
16669;SDS011;8448;52.034;5.158;2024-01-15T02:27:18;7.47;;;1.20;;
16669;SDS011;8448;52.034;5.158;2024-01-15T02:29:45;7.50;;;1.60;;
16669;SDS011;8448;52.034;5.158;2024-01-15T02:32:13;6.80;;;1.37;;
16669;SDS011;8448;52.034;5.158;2024-01-15T02:34:40;11.17;;;1.40;;
16669;SDS011;8448;52.034;5.158;2024-01-15T02:37:08;5.97;;;1.37;;
16669;SDS011;8448;52.034;5.158;2024-01-15T02:39:35;8.80;;;1.07;;
16669;SDS011;8448;52.034;5.158;2024-01-15T02:42:04;10.67;;;1.13;;
16669;SDS011;8448;52.034;5.158;2024-01-15T02:44:32;6.63;;;1.20;;
16669;SDS011;8448;52.034;5.158;2024-01-15T02:46:59;5.83;;;1.23;;
16669;SDS011;8448;52.034;5.158;2024-01-15T02:49:27;4.97;;;1.40;;
16669;SDS011;8448;52.034;5.158;2024-01-15T02:51:55;6.57;;;1.10;;
16669;SDS011;8448;52.034;5.158;2024-01-15T02:54:22;7.05;;;1.15;;
16669;SDS011;8448;52.034;5.158;2024-01-15T02:56:49;6.43;;;1.07;;
16669;SDS011;8448;52.034;5.158;2024-01-15T02:59:18;5.33;;;1.10;;
16669;SDS011;8448;52.034;5.158;2024-01-15T03:01:46;5.20;;;1.38;;
16669;SDS011;8448;52.034;5.158;2024-01-15T03:04:13;4.87;;;1.10;;
16669;SDS011;8448;52.034;5.158;2024-01-15T03:06:41;3.77;;;0.80;;
16669;SDS011;8448;52.034;5.158;2024-01-15T03:09:08;4.73;;;0.93;;
16669;SDS011;8448;52.034;5.158;2024-01-15T03:11:36;3.90;;;0.70;;
16669;SDS011;8448;52.034;5.158;2024-01-15T03:14:04;3.90;;;0.70;;
16669;SDS011;8448;52.034;5.158;2024-01-15T03:16:33;4.53;;;0.80;;
16669;SDS011;8448;52.034;5.158;2024-01-15T03:19:01;4.87;;;0.90;;
16669;SDS011;8448;52.034;5.158;2024-01-15T03:21:28;5.73;;;0.87;;
16669;SDS011;8448;52.034;5.158;2024-01-15T03:23:55;3.83;;;0.77;;
16669;SDS011;8448;52.034;5.158;2024-01-15T03:26:23;3.83;;;0.60;;
16669;SDS011;8448;52.034;5.158;2024-01-15T03:28:51;7.87;;;0.87;;
16669;SDS011;8448;52.034;5.158;2024-01-15T03:31:18;3.27;;;0.83;;
16669;SDS011;8448;52.034;5.158;2024-01-15T03:33:47;7.43;;;0.87;;
16669;SDS011;8448;52.034;5.158;2024-01-15T03:36:14;5.13;;;0.80;;
16669;SDS011;8448;52.034;5.158;2024-01-15T03:38:42;5.50;;;0.93;;
16669;SDS011;8448;52.034;5.158;2024-01-15T03:41:09;2.43;;;0.67;;
16669;SDS011;8448;52.034;5.158;2024-01-15T03:43:37;2.70;;;0.70;;
16669;SDS011;8448;52.034;5.158;2024-01-15T03:46:05;1.47;;;0.70;;
16669;SDS011;8448;52.034;5.158;2024-01-15T03:48:33;5.33;;;0.83;;
16669;SDS011;8448;52.034;5.158;2024-01-15T03:51:02;3.27;;;0.87;;
16669;SDS011;8448;52.034;5.158;2024-01-15T03:53:30;5.87;;;1.20;;
16669;SDS011;8448;52.034;5.158;2024-01-15T03:55:57;4.47;;;0.90;;
16669;SDS011;8448;52.034;5.158;2024-01-15T03:58:25;7.93;;;1.20;;
16669;SDS011;8448;52.034;5.158;2024-01-15T04:00:52;4.17;;;0.90;;
16669;SDS011;8448;52.034;5.158;2024-01-15T04:03:20;5.70;;;1.07;;
16669;SDS011;8448;52.034;5.158;2024-01-15T04:05:47;5.77;;;1.07;;
16669;SDS011;8448;52.034;5.158;2024-01-15T04:08:16;6.70;;;1.17;;
16669;SDS011;8448;52.034;5.158;2024-01-15T04:10:43;3.20;;;0.70;;
16669;SDS011;8448;52.034;5.158;2024-01-15T04:13:11;8.30;;;0.87;;
16669;SDS011;8448;52.034;5.158;2024-01-15T04:15:39;4.37;;;0.93;;
16669;SDS011;8448;52.034;5.158;2024-01-15T04:18:06;5.40;;;0.80;;
16669;SDS011;8448;52.034;5.158;2024-01-15T04:20:34;5.13;;;0.77;;
16669;SDS011;8448;52.034;5.158;2024-01-15T04:23:01;6.40;;;0.90;;
16669;SDS011;8448;52.034;5.158;2024-01-15T04:25:30;4.55;;;0.80;;
16669;SDS011;8448;52.034;5.158;2024-01-15T04:27:58;3.90;;;0.83;;
16669;SDS011;8448;52.034;5.158;2024-01-15T04:30:25;1.67;;;0.60;;
16669;SDS011;8448;52.034;5.158;2024-01-15T04:32:53;4.83;;;0.60;;
16669;SDS011;8448;52.034;5.158;2024-01-15T04:35:20;5.77;;;0.70;;
16669;SDS011;8448;52.034;5.158;2024-01-15T04:37:48;3.40;;;0.67;;
16669;SDS011;8448;52.034;5.158;2024-01-15T04:40:15;2.83;;;0.60;;
16669;SDS011;8448;52.034;5.158;2024-01-15T04:42:44;6.47;;;0.90;;
16669;SDS011;8448;52.034;5.158;2024-01-15T04:45:11;6.10;;;0.80;;
16669;SDS011;8448;52.034;5.158;2024-01-15T04:47:39;6.50;;;0.83;;
16669;SDS011;8448;52.034;5.158;2024-01-15T04:50:07;5.00;;;1.23;;
16669;SDS011;8448;52.034;5.158;2024-01-15T04:52:35;4.10;;;1.00;;
16669;SDS011;8448;52.034;5.158;2024-01-15T04:55:02;3.67;;;0.77;;
16669;SDS011;8448;52.034;5.158;2024-01-15T04:57:30;3.00;;;0.90;;
16669;SDS011;8448;52.034;5.158;2024-01-15T04:59:59;4.03;;;0.70;;
16669;SDS011;8448;52.034;5.158;2024-01-15T05:02:27;6.57;;;0.80;;
16669;SDS011;8448;52.034;5.158;2024-01-15T05:04:54;1.83;;;0.57;;
16669;SDS011;8448;52.034;5.158;2024-01-15T05:07:22;5.93;;;0.93;;
16669;SDS011;8448;52.034;5.158;2024-01-15T05:09:49;3.73;;;0.93;;
16669;SDS011;8448;52.034;5.158;2024-01-15T05:12:17;3.97;;;0.60;;
16669;SDS011;8448;52.034;5.158;2024-01-15T05:14:44;3.97;;;0.65;;
16669;SDS011;8448;52.034;5.158;2024-01-15T05:17:13;2.10;;;0.53;;
16669;SDS011;8448;52.034;5.158;2024-01-15T05:19:40;1.93;;;0.43;;
16669;SDS011;8448;52.034;5.158;2024-01-15T05:22:08;3.33;;;0.43;;
16669;SDS011;8448;52.034;5.158;2024-01-15T05:24:35;4.43;;;0.90;;
16669;SDS011;8448;52.034;5.158;2024-01-15T05:27:03;4.13;;;0.60;;
16669;SDS011;8448;52.034;5.158;2024-01-15T05:29:30;1.63;;;0.60;;
16669;SDS011;8448;52.034;5.158;2024-01-15T05:31:58;4.50;;;0.83;;
16669;SDS011;8448;52.034;5.158;2024-01-15T05:34:27;5.90;;;0.70;;
16669;SDS011;8448;52.034;5.158;2024-01-15T05:36:54;4.67;;;0.73;;
16669;SDS011;8448;52.034;5.158;2024-01-15T05:39:21;3.47;;;0.80;;
16669;SDS011;8448;52.034;5.158;2024-01-15T05:41:49;4.30;;;0.70;;
16669;SDS011;8448;52.034;5.158;2024-01-15T05:44:16;4.90;;;0.67;;
16669;SDS011;8448;52.034;5.158;2024-01-15T05:46:44;4.33;;;1.00;;
16669;SDS011;8448;52.034;5.158;2024-01-15T05:49:11;4.00;;;0.80;;
16669;SDS011;8448;52.034;5.158;2024-01-15T05:51:40;4.70;;;1.00;;
16669;SDS011;8448;52.034;5.158;2024-01-15T05:54:08;6.15;;;1.30;;
16669;SDS011;8448;52.034;5.158;2024-01-15T05:56:35;6.47;;;1.40;;
16669;SDS011;8448;52.034;5.158;2024-01-15T05:59:02;4.83;;;1.57;;
16669;SDS011;8448;52.034;5.158;2024-01-15T06:01:30;4.47;;;1.33;;
16669;SDS011;8448;52.034;5.158;2024-01-15T06:03:57;4.90;;;1.40;;
16669;SDS011;8448;52.034;5.158;2024-01-15T06:06:25;5.03;;;1.60;;
16669;SDS011;8448;52.034;5.158;2024-01-15T06:08:53;4.80;;;1.47;;
16669;SDS011;8448;52.034;5.158;2024-01-15T06:11:21;4.07;;;1.70;;
16669;SDS011;8448;52.034;5.158;2024-01-15T06:13:49;6.37;;;1.80;;
16669;SDS011;8448;52.034;5.158;2024-01-15T06:16:16;5.23;;;1.50;;
16669;SDS011;8448;52.034;5.158;2024-01-15T06:18:45;4.77;;;1.50;;
16669;SDS011;8448;52.034;5.158;2024-01-15T06:21:12;4.50;;;1.20;;
16669;SDS011;8448;52.034;5.158;2024-01-15T06:23:40;7.20;;;1.30;;
16669;SDS011;8448;52.034;5.158;2024-01-15T06:26:11;3.73;;;1.03;;
16669;SDS011;8448;52.034;5.158;2024-01-15T06:28:38;6.23;;;1.50;;
16669;SDS011;8448;52.034;5.158;2024-01-15T06:31:06;5.67;;;1.33;;
16669;SDS011;8448;52.034;5.158;2024-01-15T06:33:33;4.93;;;1.27;;
16669;SDS011;8448;52.034;5.158;2024-01-15T06:36:01;3.67;;;1.10;;
16669;SDS011;8448;52.034;5.158;2024-01-15T06:38:28;3.57;;;1.13;;
16669;SDS011;8448;52.034;5.158;2024-01-15T06:40:56;6.00;;;1.40;;
16669;SDS011;8448;52.034;5.158;2024-01-15T06:43:25;4.90;;;1.13;;
16669;SDS011;8448;52.034;5.158;2024-01-15T06:45:52;9.00;;;1.43;;
16669;SDS011;8448;52.034;5.158;2024-01-15T06:48:19;4.73;;;1.60;;
16669;SDS011;8448;52.034;5.158;2024-01-15T06:50:47;6.13;;;1.87;;
16669;SDS011;8448;52.034;5.158;2024-01-15T06:53:14;5.67;;;1.67;;
16669;SDS011;8448;52.034;5.158;2024-01-15T06:55:42;5.23;;;1.70;;
16669;SDS011;8448;52.034;5.158;2024-01-15T06:58:09;4.17;;;1.57;;
16669;SDS011;8448;52.034;5.158;2024-01-15T07:00:38;7.97;;;1.70;;
16669;SDS011;8448;52.034;5.158;2024-01-15T07:03:06;6.47;;;1.50;;
16669;SDS011;8448;52.034;5.158;2024-01-15T07:05:33;3.47;;;1.10;;
16669;SDS011;8448;52.034;5.158;2024-01-15T07:08:02;3.97;;;1.30;;
16669;SDS011;8448;52.034;5.158;2024-01-15T07:10:30;2.10;;;1.10;;
16669;SDS011;8448;52.034;5.158;2024-01-15T07:12:58;3.80;;;0.97;;
16669;SDS011;8448;52.034;5.158;2024-01-15T07:15:25;5.13;;;1.50;;
16669;SDS011;8448;52.034;5.158;2024-01-15T07:17:54;6.83;;;1.50;;
16669;SDS011;8448;52.034;5.158;2024-01-15T07:20:21;7.10;;;1.23;;
16669;SDS011;8448;52.034;5.158;2024-01-15T07:22:49;6.07;;;1.37;;
16669;SDS011;8448;52.034;5.158;2024-01-15T07:25:16;5.77;;;1.30;;
16669;SDS011;8448;52.034;5.158;2024-01-15T07:27:44;6.33;;;1.50;;
16669;SDS011;8448;52.034;5.158;2024-01-15T07:30:12;10.57;;;1.60;;
16669;SDS011;8448;52.034;5.158;2024-01-15T07:32:40;6.20;;;1.97;;
16669;SDS011;8448;52.034;5.158;2024-01-15T07:35:09;7.88;;;1.88;;
16669;SDS011;8448;52.034;5.158;2024-01-15T07:37:36;5.97;;;1.57;;
16669;SDS011;8448;52.034;5.158;2024-01-15T07:40:05;5.00;;;1.63;;
16669;SDS011;8448;52.034;5.158;2024-01-15T07:42:33;5.53;;;1.50;;
16669;SDS011;8448;52.034;5.158;2024-01-15T07:45:01;7.77;;;1.70;;
16669;SDS011;8448;52.034;5.158;2024-01-15T07:47:29;8.37;;;2.00;;
16669;SDS011;8448;52.034;5.158;2024-01-15T07:49:57;6.18;;;2.05;;
16669;SDS011;8448;52.034;5.158;2024-01-15T07:52:25;8.13;;;2.37;;
16669;SDS011;8448;52.034;5.158;2024-01-15T07:54:53;8.27;;;2.13;;
16669;SDS011;8448;52.034;5.158;2024-01-15T07:57:21;13.03;;;1.93;;
16669;SDS011;8448;52.034;5.158;2024-01-15T07:59:48;7.60;;;1.90;;
16669;SDS011;8448;52.034;5.158;2024-01-15T08:02:16;5.50;;;1.80;;
16669;SDS011;8448;52.034;5.158;2024-01-15T08:04:44;7.60;;;1.50;;
16669;SDS011;8448;52.034;5.158;2024-01-15T08:07:11;7.20;;;1.40;;
16669;SDS011;8448;52.034;5.158;2024-01-15T08:09:40;5.03;;;1.90;;
16669;SDS011;8448;52.034;5.158;2024-01-15T08:12:08;8.37;;;1.50;;
16669;SDS011;8448;52.034;5.158;2024-01-15T08:14:35;8.57;;;1.40;;
16669;SDS011;8448;52.034;5.158;2024-01-15T08:17:02;4.03;;;1.10;;
16669;SDS011;8448;52.034;5.158;2024-01-15T08:19:30;5.23;;;1.57;;
16669;SDS011;8448;52.034;5.158;2024-01-15T08:21:58;5.43;;;1.33;;
16669;SDS011;8448;52.034;5.158;2024-01-15T08:24:25;4.77;;;1.30;;
16669;SDS011;8448;52.034;5.158;2024-01-15T08:26:55;5.27;;;1.07;;
16669;SDS011;8448;52.034;5.158;2024-01-15T08:29:22;9.53;;;1.10;;
16669;SDS011;8448;52.034;5.158;2024-01-15T08:31:50;4.70;;;1.33;;
16669;SDS011;8448;52.034;5.158;2024-01-15T08:34:17;8.23;;;1.27;;
16669;SDS011;8448;52.034;5.158;2024-01-15T08:36:45;6.43;;;1.10;;
16669;SDS011;8448;52.034;5.158;2024-01-15T08:39:13;3.83;;;0.97;;
16669;SDS011;8448;52.034;5.158;2024-01-15T08:41:40;4.63;;;0.80;;
16669;SDS011;8448;52.034;5.158;2024-01-15T08:44:09;5.53;;;1.20;;
16669;SDS011;8448;52.034;5.158;2024-01-15T08:46:36;7.10;;;1.50;;
16669;SDS011;8448;52.034;5.158;2024-01-15T08:49:04;2.97;;;1.00;;
16669;SDS011;8448;52.034;5.158;2024-01-15T08:51:32;6.10;;;1.20;;
16669;SDS011;8448;52.034;5.158;2024-01-15T08:53:59;4.73;;;1.10;;
16669;SDS011;8448;52.034;5.158;2024-01-15T08:56:27;5.30;;;1.10;;
16669;SDS011;8448;52.034;5.158;2024-01-15T08:58:54;6.83;;;1.33;;
16669;SDS011;8448;52.034;5.158;2024-01-15T09:01:22;5.00;;;1.37;;
16669;SDS011;8448;52.034;5.158;2024-01-15T09:03:50;5.73;;;1.50;;
16669;SDS011;8448;52.034;5.158;2024-01-15T09:06:17;4.97;;;1.40;;
16669;SDS011;8448;52.034;5.158;2024-01-15T09:08:45;9.53;;;1.90;;
16669;SDS011;8448;52.034;5.158;2024-01-15T09:11:13;7.20;;;1.70;;
16669;SDS011;8448;52.034;5.158;2024-01-15T09:13:40;7.43;;;2.20;;
16669;SDS011;8448;52.034;5.158;2024-01-15T09:16:08;5.93;;;1.40;;
16669;SDS011;8448;52.034;5.158;2024-01-15T09:18:36;9.67;;;1.83;;
16669;SDS011;8448;52.034;5.158;2024-01-15T09:21:04;5.67;;;1.50;;
16669;SDS011;8448;52.034;5.158;2024-01-15T09:23:31;7.80;;;1.70;;
16669;SDS011;8448;52.034;5.158;2024-01-15T09:25:59;3.67;;;1.67;;
16669;SDS011;8448;52.034;5.158;2024-01-15T09:28:26;6.43;;;1.80;;
16669;SDS011;8448;52.034;5.158;2024-01-15T09:30:54;6.07;;;1.60;;
16669;SDS011;8448;52.034;5.158;2024-01-15T09:33:21;8.60;;;1.90;;
16669;SDS011;8448;52.034;5.158;2024-01-15T09:35:50;9.67;;;2.17;;
16669;SDS011;8448;52.034;5.158;2024-01-15T09:38:17;5.93;;;1.63;;
16669;SDS011;8448;52.034;5.158;2024-01-15T09:40:46;8.60;;;1.90;;
16669;SDS011;8448;52.034;5.158;2024-01-15T09:43:14;4.70;;;1.50;;
16669;SDS011;8448;52.034;5.158;2024-01-15T09:45:42;8.93;;;2.07;;
16669;SDS011;8448;52.034;5.158;2024-01-15T09:48:09;5.43;;;2.00;;
16669;SDS011;8448;52.034;5.158;2024-01-15T09:50:37;6.87;;;1.80;;
16669;SDS011;8448;52.034;5.158;2024-01-15T09:53:06;5.83;;;1.20;;
16669;SDS011;8448;52.034;5.158;2024-01-15T09:55:34;8.80;;;1.20;;
16669;SDS011;8448;52.034;5.158;2024-01-15T09:58:03;6.07;;;1.37;;
16669;SDS011;8448;52.034;5.158;2024-01-15T10:00:30;5.30;;;1.10;;
16669;SDS011;8448;52.034;5.158;2024-01-15T10:03:02;3.93;;;1.10;;
16669;SDS011;8448;52.034;5.158;2024-01-15T10:05:30;4.03;;;1.10;;
16669;SDS011;8448;52.034;5.158;2024-01-15T10:07:57;4.30;;;0.93;;
16669;SDS011;8448;52.034;5.158;2024-01-15T10:10:28;2.93;;;0.83;;
16669;SDS011;8448;52.034;5.158;2024-01-15T10:12:56;3.50;;;1.20;;
16669;SDS011;8448;52.034;5.158;2024-01-15T10:15:25;6.07;;;1.37;;
16669;SDS011;8448;52.034;5.158;2024-01-15T10:17:53;6.07;;;1.03;;
16669;SDS011;8448;52.034;5.158;2024-01-15T10:20:20;4.60;;;1.00;;
16669;SDS011;8448;52.034;5.158;2024-01-15T10:22:49;4.33;;;1.10;;
16669;SDS011;8448;52.034;5.158;2024-01-15T10:25:17;6.97;;;1.33;;
16669;SDS011;8448;52.034;5.158;2024-01-15T10:27:58;3.90;;;0.90;;
16669;SDS011;8448;52.034;5.158;2024-01-15T10:30:26;4.37;;;1.00;;
16669;SDS011;8448;52.034;5.158;2024-01-15T10:32:57;7.33;;;1.20;;
16669;SDS011;8448;52.034;5.158;2024-01-15T10:35:26;7.07;;;1.10;;
16669;SDS011;8448;52.034;5.158;2024-01-15T10:37:55;8.03;;;1.20;;
16669;SDS011;8448;52.034;5.158;2024-01-15T10:40:23;4.87;;;1.17;;
16669;SDS011;8448;52.034;5.158;2024-01-15T10:42:50;4.83;;;0.97;;
16669;SDS011;8448;52.034;5.158;2024-01-15T10:45:20;7.60;;;1.10;;
16669;SDS011;8448;52.034;5.158;2024-01-15T10:47:47;4.80;;;1.10;;
16669;SDS011;8448;52.034;5.158;2024-01-15T10:50:15;5.97;;;1.10;;
16669;SDS011;8448;52.034;5.158;2024-01-15T10:52:43;7.30;;;1.03;;
16669;SDS011;8448;52.034;5.158;2024-01-15T10:55:10;4.47;;;1.20;;
16669;SDS011;8448;52.034;5.158;2024-01-15T10:57:38;7.53;;;1.63;;
16669;SDS011;8448;52.034;5.158;2024-01-15T11:00:06;5.77;;;1.20;;
16669;SDS011;8448;52.034;5.158;2024-01-15T11:02:41;8.03;;;1.10;;
16669;SDS011;8448;52.034;5.158;2024-01-15T11:05:10;9.00;;;1.07;;
16669;SDS011;8448;52.034;5.158;2024-01-15T11:07:37;5.40;;;0.80;;
16669;SDS011;8448;52.034;5.158;2024-01-15T11:10:07;7.40;;;1.10;;
16669;SDS011;8448;52.034;5.158;2024-01-15T11:12:36;3.87;;;0.90;;
16669;SDS011;8448;52.034;5.158;2024-01-15T11:15:03;5.80;;;1.00;;
16669;SDS011;8448;52.034;5.158;2024-01-15T11:20:30;6.80;;;1.20;;
16669;SDS011;8448;52.034;5.158;2024-01-15T11:22:58;4.63;;;1.00;;
16669;SDS011;8448;52.034;5.158;2024-01-15T11:25:33;6.27;;;1.17;;
16669;SDS011;8448;52.034;5.158;2024-01-15T11:28:03;6.40;;;1.20;;
16669;SDS011;8448;52.034;5.158;2024-01-15T11:30:31;6.47;;;1.20;;
16669;SDS011;8448;52.034;5.158;2024-01-15T11:33:02;6.33;;;1.57;;
16669;SDS011;8448;52.034;5.158;2024-01-15T11:38:26;5.63;;;1.40;;
16669;SDS011;8448;52.034;5.158;2024-01-15T11:40:54;8.30;;;1.27;;
16669;SDS011;8448;52.034;5.158;2024-01-15T11:43:21;5.20;;;1.00;;
16669;SDS011;8448;52.034;5.158;2024-01-15T11:45:50;6.50;;;1.30;;
16669;SDS011;8448;52.034;5.158;2024-01-15T11:48:21;5.17;;;1.20;;
16669;SDS011;8448;52.034;5.158;2024-01-15T11:50:51;6.90;;;1.17;;
16669;SDS011;8448;52.034;5.158;2024-01-15T11:53:32;5.17;;;1.13;;
16669;SDS011;8448;52.034;5.158;2024-01-15T11:56:02;5.57;;;0.97;;
16669;SDS011;8448;52.034;5.158;2024-01-15T11:58:31;4.67;;;1.60;;
16669;SDS011;8448;52.034;5.158;2024-01-15T12:01:01;4.77;;;1.50;;
16669;SDS011;8448;52.034;5.158;2024-01-15T12:03:31;4.90;;;1.43;;
16669;SDS011;8448;52.034;5.158;2024-01-15T12:05:59;3.23;;;1.20;;
16669;SDS011;8448;52.034;5.158;2024-01-15T12:08:27;4.93;;;1.00;;
16669;SDS011;8448;52.034;5.158;2024-01-15T12:10:54;6.97;;;1.40;;
16669;SDS011;8448;52.034;5.158;2024-01-15T12:13:22;6.27;;;1.00;;
16669;SDS011;8448;52.034;5.158;2024-01-15T12:15:49;8.00;;;1.10;;
16669;SDS011;8448;52.034;5.158;2024-01-15T12:18:17;5.13;;;1.10;;
16669;SDS011;8448;52.034;5.158;2024-01-15T12:20:46;7.50;;;1.07;;
16669;SDS011;8448;52.034;5.158;2024-01-15T12:23:14;5.20;;;1.10;;
16669;SDS011;8448;52.034;5.158;2024-01-15T12:25:41;2.33;;;0.97;;
16669;SDS011;8448;52.034;5.158;2024-01-15T12:28:09;4.70;;;1.00;;
16669;SDS011;8448;52.034;5.158;2024-01-15T12:30:36;5.37;;;1.57;;
16669;SDS011;8448;52.034;5.158;2024-01-15T12:33:05;3.47;;;0.80;;
16669;SDS011;8448;52.034;5.158;2024-01-15T12:35:34;4.33;;;0.80;;
16669;SDS011;8448;52.034;5.158;2024-01-15T12:38:04;7.47;;;1.47;;
16669;SDS011;8448;52.034;5.158;2024-01-15T12:40:32;5.63;;;1.30;;
16669;SDS011;8448;52.034;5.158;2024-01-15T12:43:00;6.40;;;1.40;;
16669;SDS011;8448;52.034;5.158;2024-01-15T12:45:28;3.73;;;1.10;;
16669;SDS011;8448;52.034;5.158;2024-01-15T12:47:57;5.67;;;1.23;;
16669;SDS011;8448;52.034;5.158;2024-01-15T12:50:25;9.13;;;1.43;;
16669;SDS011;8448;52.034;5.158;2024-01-15T12:52:52;6.03;;;1.00;;
16669;SDS011;8448;52.034;5.158;2024-01-15T12:55:21;3.83;;;0.90;;
16669;SDS011;8448;52.034;5.158;2024-01-15T12:57:49;3.20;;;1.00;;
16669;SDS011;8448;52.034;5.158;2024-01-15T13:00:19;6.17;;;1.43;;
16669;SDS011;8448;52.034;5.158;2024-01-15T13:02:47;5.90;;;1.10;;
16669;SDS011;8448;52.034;5.158;2024-01-15T13:05:14;5.03;;;1.00;;
16669;SDS011;8448;52.034;5.158;2024-01-15T13:07:43;4.53;;;1.10;;
16669;SDS011;8448;52.034;5.158;2024-01-15T13:10:11;3.93;;;1.27;;
16669;SDS011;8448;52.034;5.158;2024-01-15T13:12:40;7.73;;;1.20;;
16669;SDS011;8448;52.034;5.158;2024-01-15T13:15:08;4.97;;;1.30;;
16669;SDS011;8448;52.034;5.158;2024-01-15T13:17:36;5.47;;;1.23;;
16669;SDS011;8448;52.034;5.158;2024-01-15T13:20:05;5.90;;;1.30;;
16669;SDS011;8448;52.034;5.158;2024-01-15T13:22:33;7.67;;;1.67;;
16669;SDS011;8448;52.034;5.158;2024-01-15T13:25:01;5.47;;;1.20;;
16669;SDS011;8448;52.034;5.158;2024-01-15T13:27:29;3.23;;;1.10;;
16669;SDS011;8448;52.034;5.158;2024-01-15T13:29:58;3.20;;;1.07;;
16669;SDS011;8448;52.034;5.158;2024-01-15T13:32:28;5.80;;;1.40;;
16669;SDS011;8448;52.034;5.158;2024-01-15T13:34:56;5.83;;;1.30;;
16669;SDS011;8448;52.034;5.158;2024-01-15T13:37:24;6.80;;;1.47;;
16669;SDS011;8448;52.034;5.158;2024-01-15T13:39:52;5.73;;;1.63;;
16669;SDS011;8448;52.034;5.158;2024-01-15T13:42:21;6.77;;;1.77;;
16669;SDS011;8448;52.034;5.158;2024-01-15T13:44:49;7.63;;;2.00;;
16669;SDS011;8448;52.034;5.158;2024-01-15T13:47:18;7.83;;;2.00;;
16669;SDS011;8448;52.034;5.158;2024-01-15T13:49:46;9.93;;;1.93;;
16669;SDS011;8448;52.034;5.158;2024-01-15T13:52:13;8.77;;;1.40;;
16669;SDS011;8448;52.034;5.158;2024-01-15T13:54:41;10.43;;;1.57;;
16669;SDS011;8448;52.034;5.158;2024-01-15T13:57:08;7.57;;;1.50;;
16669;SDS011;8448;52.034;5.158;2024-01-15T13:59:36;5.33;;;1.80;;
16669;SDS011;8448;52.034;5.158;2024-01-15T14:02:03;8.37;;;1.70;;
16669;SDS011;8448;52.034;5.158;2024-01-15T14:04:32;5.07;;;1.53;;
16669;SDS011;8448;52.034;5.158;2024-01-15T14:07:00;5.70;;;1.50;;
16669;SDS011;8448;52.034;5.158;2024-01-15T14:09:27;7.27;;;1.40;;
16669;SDS011;8448;52.034;5.158;2024-01-15T14:11:57;4.93;;;1.30;;
16669;SDS011;8448;52.034;5.158;2024-01-15T14:14:24;6.90;;;1.70;;
16669;SDS011;8448;52.034;5.158;2024-01-15T14:16:52;8.47;;;2.23;;
16669;SDS011;8448;52.034;5.158;2024-01-15T14:19:19;7.20;;;1.73;;
16669;SDS011;8448;52.034;5.158;2024-01-15T14:21:48;8.60;;;1.73;;
16669;SDS011;8448;52.034;5.158;2024-01-15T14:24:16;6.50;;;1.60;;
16669;SDS011;8448;52.034;5.158;2024-01-15T14:26:43;11.03;;;1.90;;
16669;SDS011;8448;52.034;5.158;2024-01-15T14:29:11;7.67;;;1.60;;
16669;SDS011;8448;52.034;5.158;2024-01-15T14:31:39;7.97;;;1.90;;
16669;SDS011;8448;52.034;5.158;2024-01-15T14:34:06;8.07;;;1.60;;
16669;SDS011;8448;52.034;5.158;2024-01-15T14:36:34;8.20;;;1.40;;
16669;SDS011;8448;52.034;5.158;2024-01-15T14:39:02;9.10;;;1.57;;
16669;SDS011;8448;52.034;5.158;2024-01-15T14:41:30;6.20;;;1.40;;
16669;SDS011;8448;52.034;5.158;2024-01-15T14:43:57;6.93;;;1.50;;
16669;SDS011;8448;52.034;5.158;2024-01-15T14:46:25;6.67;;;1.53;;
16669;SDS011;8448;52.034;5.158;2024-01-15T14:48:53;8.47;;;1.83;;
16669;SDS011;8448;52.034;5.158;2024-01-15T14:51:20;10.37;;;1.63;;
16669;SDS011;8448;52.034;5.158;2024-01-15T14:53:48;6.30;;;1.50;;
16669;SDS011;8448;52.034;5.158;2024-01-15T14:56:17;12.67;;;1.63;;
16669;SDS011;8448;52.034;5.158;2024-01-15T14:58:45;12.10;;;2.30;;
16669;SDS011;8448;52.034;5.158;2024-01-15T15:01:13;9.60;;;1.83;;
16669;SDS011;8448;52.034;5.158;2024-01-15T15:03:42;10.17;;;1.93;;
16669;SDS011;8448;52.034;5.158;2024-01-15T15:06:10;10.47;;;1.80;;
16669;SDS011;8448;52.034;5.158;2024-01-15T15:08:37;8.67;;;1.80;;
16669;SDS011;8448;52.034;5.158;2024-01-15T15:11:05;8.43;;;1.83;;